sensor_id;sensor_type;location;lat;lon;timestamp;P1;durP1;ratioP1;P2;durP2;ratioP2
58581;SDS011;44361;51.476;5.700;2023-09-12T00:00:42;50.28;;;26.73;;
58581;SDS011;44361;51.476;5.700;2023-09-12T00:03:08;55.15;;;28.02;;
58581;SDS011;44361;51.476;5.700;2023-09-12T00:05:34;56.30;;;27.88;;
58581;SDS011;44361;51.476;5.700;2023-09-12T00:07:59;58.28;;;29.67;;
58581;SDS011;44361;51.476;5.700;2023-09-12T00:10:25;60.88;;;28.23;;
58581;SDS011;44361;51.476;5.700;2023-09-12T00:12:50;57.38;;;27.42;;
58581;SDS011;44361;51.476;5.700;2023-09-12T00:15:16;62.55;;;29.48;;
58581;SDS011;44361;51.476;5.700;2023-09-12T00:17:41;55.00;;;27.95;;
58581;SDS011;44361;51.476;5.700;2023-09-12T00:20:07;58.50;;;29.42;;
58581;SDS011;44361;51.476;5.700;2023-09-12T00:22:33;61.55;;;28.25;;
58581;SDS011;44361;51.476;5.700;2023-09-12T00:24:58;55.15;;;27.00;;
58581;SDS011;44361;51.476;5.700;2023-09-12T00:27:24;66.05;;;29.48;;
58581;SDS011;44361;51.476;5.700;2023-09-12T00:29:50;54.50;;;26.52;;
58581;SDS011;44361;51.476;5.700;2023-09-12T00:32:15;52.72;;;27.02;;
58581;SDS011;44361;51.476;5.700;2023-09-12T00:34:41;52.90;;;27.83;;
58581;SDS011;44361;51.476;5.700;2023-09-12T00:37:06;59.15;;;27.23;;
58581;SDS011;44361;51.476;5.700;2023-09-12T00:39:32;55.92;;;27.83;;
58581;SDS011;44361;51.476;5.700;2023-09-12T00:41:57;55.03;;;27.13;;
58581;SDS011;44361;51.476;5.700;2023-09-12T00:44:23;57.72;;;28.00;;
58581;SDS011;44361;51.476;5.700;2023-09-12T00:46:48;57.90;;;28.88;;
58581;SDS011;44361;51.476;5.700;2023-09-12T00:49:15;53.92;;;26.25;;
58581;SDS011;44361;51.476;5.700;2023-09-12T00:51:42;54.30;;;26.88;;
58581;SDS011;44361;51.476;5.700;2023-09-12T00:54:09;60.10;;;27.60;;
58581;SDS011;44361;51.476;5.700;2023-09-12T00:56:35;58.38;;;27.08;;
58581;SDS011;44361;51.476;5.700;2023-09-12T00:59:01;51.85;;;27.33;;
58581;SDS011;44361;51.476;5.700;2023-09-12T01:01:29;52.80;;;27.17;;
58581;SDS011;44361;51.476;5.700;2023-09-12T01:03:56;51.22;;;27.55;;
58581;SDS011;44361;51.476;5.700;2023-09-12T01:06:23;55.28;;;25.40;;
58581;SDS011;44361;51.476;5.700;2023-09-12T01:08:51;52.10;;;26.23;;
58581;SDS011;44361;51.476;5.700;2023-09-12T01:11:17;54.45;;;25.40;;
58581;SDS011;44361;51.476;5.700;2023-09-12T01:13:42;55.47;;;27.00;;
58581;SDS011;44361;51.476;5.700;2023-09-12T01:16:08;57.28;;;26.50;;
58581;SDS011;44361;51.476;5.700;2023-09-12T01:18:33;54.60;;;27.38;;
58581;SDS011;44361;51.476;5.700;2023-09-12T01:29:09;59.47;;;26.30;;
58581;SDS011;44361;51.476;5.700;2023-09-12T01:31:38;61.15;;;27.67;;
58581;SDS011;44361;51.476;5.700;2023-09-12T01:34:08;61.13;;;27.48;;
58581;SDS011;44361;51.476;5.700;2023-09-12T01:36:35;61.10;;;26.77;;
58581;SDS011;44361;51.476;5.700;2023-09-12T01:39:01;60.38;;;26.52;;
58581;SDS011;44361;51.476;5.700;2023-09-12T01:41:26;64.43;;;26.95;;
58581;SDS011;44361;51.476;5.700;2023-09-12T01:43:56;62.60;;;28.52;;
58581;SDS011;44361;51.476;5.700;2023-09-12T01:46:22;65.90;;;28.05;;
58581;SDS011;44361;51.476;5.700;2023-09-12T01:48:48;61.85;;;27.60;;
58581;SDS011;44361;51.476;5.700;2023-09-12T01:51:17;64.47;;;29.23;;
58581;SDS011;44361;51.476;5.700;2023-09-12T01:53:44;60.55;;;27.67;;
58581;SDS011;44361;51.476;5.700;2023-09-12T01:56:11;64.40;;;27.13;;
58581;SDS011;44361;51.476;5.700;2023-09-12T01:58:38;52.20;;;25.27;;
58581;SDS011;44361;51.476;5.700;2023-09-12T02:01:03;60.40;;;26.70;;
58581;SDS011;44361;51.476;5.700;2023-09-12T02:03:29;58.15;;;26.92;;
58581;SDS011;44361;51.476;5.700;2023-09-12T02:05:54;62.95;;;27.15;;
58581;SDS011;44361;51.476;5.700;2023-09-12T02:08:20;55.78;;;26.08;;
58581;SDS011;44361;51.476;5.700;2023-09-12T02:10:45;63.58;;;26.67;;
58581;SDS011;44361;51.476;5.700;2023-09-12T02:13:11;62.33;;;26.92;;
58581;SDS011;44361;51.476;5.700;2023-09-12T02:15:36;60.03;;;27.40;;
58581;SDS011;44361;51.476;5.700;2023-09-12T02:18:02;60.20;;;25.90;;
58581;SDS011;44361;51.476;5.700;2023-09-12T02:20:28;60.47;;;26.27;;
58581;SDS011;44361;51.476;5.700;2023-09-12T02:22:53;63.20;;;26.67;;
58581;SDS011;44361;51.476;5.700;2023-09-12T02:25:19;60.33;;;26.75;;
58581;SDS011;44361;51.476;5.700;2023-09-12T02:27:44;65.70;;;28.08;;
58581;SDS011;44361;51.476;5.700;2023-09-12T02:30:10;68.93;;;27.73;;
58581;SDS011;44361;51.476;5.700;2023-09-12T02:32:35;65.32;;;27.45;;
58581;SDS011;44361;51.476;5.700;2023-09-12T02:35:01;66.88;;;28.00;;
58581;SDS011;44361;51.476;5.700;2023-09-12T02:37:27;75.40;;;29.25;;
58581;SDS011;44361;51.476;5.700;2023-09-12T02:39:53;80.03;;;29.35;;
58581;SDS011;44361;51.476;5.700;2023-09-12T02:42:18;72.95;;;28.50;;
58581;SDS011;44361;51.476;5.700;2023-09-12T02:44:44;72.10;;;28.90;;
58581;SDS011;44361;51.476;5.700;2023-09-12T02:47:09;69.40;;;29.10;;
58581;SDS011;44361;51.476;5.700;2023-09-12T02:49:35;77.25;;;29.83;;
58581;SDS011;44361;51.476;5.700;2023-09-12T02:52:00;70.22;;;29.25;;
58581;SDS011;44361;51.476;5.700;2023-09-12T02:54:26;72.13;;;29.00;;
58581;SDS011;44361;51.476;5.700;2023-09-12T02:56:51;70.00;;;27.80;;
58581;SDS011;44361;51.476;5.700;2023-09-12T02:59:17;69.65;;;28.25;;
58581;SDS011;44361;51.476;5.700;2023-09-12T03:01:44;65.57;;;28.52;;
58581;SDS011;44361;51.476;5.700;2023-09-12T03:04:09;67.55;;;27.40;;
58581;SDS011;44361;51.476;5.700;2023-09-12T03:06:35;80.50;;;29.02;;
58581;SDS011;44361;51.476;5.700;2023-09-12T03:09:00;68.15;;;28.30;;
58581;SDS011;44361;51.476;5.700;2023-09-12T03:11:26;76.68;;;28.65;;
58581;SDS011;44361;51.476;5.700;2023-09-12T03:13:52;72.45;;;27.92;;
58581;SDS011;44361;51.476;5.700;2023-09-12T03:16:18;79.60;;;28.10;;
58581;SDS011;44361;51.476;5.700;2023-09-12T03:18:44;76.70;;;29.60;;
58581;SDS011;44361;51.476;5.700;2023-09-12T03:21:09;87.00;;;31.30;;
58581;SDS011;44361;51.476;5.700;2023-09-12T03:23:35;84.15;;;29.65;;
58581;SDS011;44361;51.476;5.700;2023-09-12T03:26:01;76.05;;;28.63;;
58581;SDS011;44361;51.476;5.700;2023-09-12T03:28:28;66.63;;;28.60;;
58581;SDS011;44361;51.476;5.700;2023-09-12T03:31:02;72.68;;;28.45;;
58581;SDS011;44361;51.476;5.700;2023-09-12T03:33:32;69.38;;;26.75;;
58581;SDS011;44361;51.476;5.700;2023-09-12T03:35:57;65.15;;;27.50;;
58581;SDS011;44361;51.476;5.700;2023-09-12T03:38:23;73.00;;;28.45;;
58581;SDS011;44361;51.476;5.700;2023-09-12T03:40:48;74.13;;;27.92;;
58581;SDS011;44361;51.476;5.700;2023-09-12T03:43:14;76.55;;;28.42;;
58581;SDS011;44361;51.476;5.700;2023-09-12T03:45:40;81.93;;;30.25;;
58581;SDS011;44361;51.476;5.700;2023-09-12T03:48:05;80.32;;;28.48;;
58581;SDS011;44361;51.476;5.700;2023-09-12T03:50:31;82.93;;;29.38;;
58581;SDS011;44361;51.476;5.700;2023-09-12T03:52:56;88.25;;;31.00;;
58581;SDS011;44361;51.476;5.700;2023-09-12T03:55:22;84.22;;;29.65;;
58581;SDS011;44361;51.476;5.700;2023-09-12T03:57:47;68.20;;;26.70;;
58581;SDS011;44361;51.476;5.700;2023-09-12T04:00:13;90.18;;;29.33;;
58581;SDS011;44361;51.476;5.700;2023-09-12T04:02:39;72.60;;;29.15;;
58581;SDS011;44361;51.476;5.700;2023-09-12T04:05:05;72.05;;;28.95;;
58581;SDS011;44361;51.476;5.700;2023-09-12T04:07:30;87.57;;;29.98;;
58581;SDS011;44361;51.476;5.700;2023-09-12T04:09:56;85.45;;;30.20;;
58581;SDS011;44361;51.476;5.700;2023-09-12T04:12:21;82.60;;;30.95;;
58581;SDS011;44361;51.476;5.700;2023-09-12T04:14:49;81.10;;;31.95;;
58581;SDS011;44361;51.476;5.700;2023-09-12T04:17:16;98.40;;;33.03;;
58581;SDS011;44361;51.476;5.700;2023-09-12T04:19:41;86.55;;;31.88;;
58581;SDS011;44361;51.476;5.700;2023-09-12T04:22:07;91.03;;;31.02;;
58581;SDS011;44361;51.476;5.700;2023-09-12T04:24:33;82.93;;;31.90;;
58581;SDS011;44361;51.476;5.700;2023-09-12T04:26:58;78.15;;;30.13;;
58581;SDS011;44361;51.476;5.700;2023-09-12T04:29:24;80.68;;;30.13;;
58581;SDS011;44361;51.476;5.700;2023-09-12T04:31:49;77.25;;;31.08;;
58581;SDS011;44361;51.476;5.700;2023-09-12T04:34:17;76.65;;;30.02;;
58581;SDS011;44361;51.476;5.700;2023-09-12T04:36:43;71.50;;;29.45;;
58581;SDS011;44361;51.476;5.700;2023-09-12T04:39:08;78.82;;;30.85;;
58581;SDS011;44361;51.476;5.700;2023-09-12T04:41:34;79.13;;;31.00;;
58581;SDS011;44361;51.476;5.700;2023-09-12T04:43:59;78.43;;;29.95;;
58581;SDS011;44361;51.476;5.700;2023-09-12T04:46:27;77.20;;;29.98;;
58581;SDS011;44361;51.476;5.700;2023-09-12T04:48:52;71.45;;;28.75;;
58581;SDS011;44361;51.476;5.700;2023-09-12T04:51:18;81.88;;;31.40;;
58581;SDS011;44361;51.476;5.700;2023-09-12T04:53:43;84.53;;;32.75;;
58581;SDS011;44361;51.476;5.700;2023-09-12T04:56:09;91.82;;;33.30;;
58581;SDS011;44361;51.476;5.700;2023-09-12T04:58:35;84.40;;;33.17;;
58581;SDS011;44361;51.476;5.700;2023-09-12T05:01:00;102.38;;;34.63;;
58581;SDS011;44361;51.476;5.700;2023-09-12T05:03:27;98.72;;;34.60;;
58581;SDS011;44361;51.476;5.700;2023-09-12T05:05:52;90.07;;;35.67;;
58581;SDS011;44361;51.476;5.700;2023-09-12T05:08:18;94.63;;;34.67;;
58581;SDS011;44361;51.476;5.700;2023-09-12T05:10:44;102.05;;;35.55;;
58581;SDS011;44361;51.476;5.700;2023-09-12T05:13:10;97.03;;;34.10;;
58581;SDS011;44361;51.476;5.700;2023-09-12T05:15:35;94.45;;;34.15;;
58581;SDS011;44361;51.476;5.700;2023-09-12T05:18:04;91.18;;;34.05;;
58581;SDS011;44361;51.476;5.700;2023-09-12T05:20:33;104.13;;;36.00;;
58581;SDS011;44361;51.476;5.700;2023-09-12T05:22:59;86.40;;;34.50;;
58581;SDS011;44361;51.476;5.700;2023-09-12T05:25:24;100.35;;;35.92;;
58581;SDS011;44361;51.476;5.700;2023-09-12T05:27:51;92.00;;;34.45;;
58581;SDS011;44361;51.476;5.700;2023-09-12T05:30:17;95.97;;;34.03;;
58581;SDS011;44361;51.476;5.700;2023-09-12T05:32:43;101.13;;;36.47;;
58581;SDS011;44361;51.476;5.700;2023-09-12T05:35:09;95.72;;;34.53;;
58581;SDS011;44361;51.476;5.700;2023-09-12T05:37:34;97.43;;;35.17;;
58581;SDS011;44361;51.476;5.700;2023-09-12T05:40:00;101.85;;;34.63;;
58581;SDS011;44361;51.476;5.700;2023-09-12T05:42:25;98.75;;;35.75;;
58581;SDS011;44361;51.476;5.700;2023-09-12T05:44:51;100.95;;;36.78;;
58581;SDS011;44361;51.476;5.700;2023-09-12T05:47:19;101.40;;;34.35;;
58581;SDS011;44361;51.476;5.700;2023-09-12T05:49:45;95.25;;;33.88;;
58581;SDS011;44361;51.476;5.700;2023-09-12T05:52:11;101.03;;;34.72;;
58581;SDS011;44361;51.476;5.700;2023-09-12T05:54:37;96.75;;;35.53;;
58581;SDS011;44361;51.476;5.700;2023-09-12T05:57:05;90.07;;;34.17;;
58581;SDS011;44361;51.476;5.700;2023-09-12T05:59:31;95.05;;;33.95;;
58581;SDS011;44361;51.476;5.700;2023-09-12T06:01:58;104.70;;;35.95;;
58581;SDS011;44361;51.476;5.700;2023-09-12T06:04:23;96.10;;;34.28;;
58581;SDS011;44361;51.476;5.700;2023-09-12T06:06:49;98.40;;;34.95;;
58581;SDS011;44361;51.476;5.700;2023-09-12T06:09:14;104.22;;;35.55;;
58581;SDS011;44361;51.476;5.700;2023-09-12T06:11:40;99.93;;;34.67;;
58581;SDS011;44361;51.476;5.700;2023-09-12T06:14:05;99.20;;;36.72;;
58581;SDS011;44361;51.476;5.700;2023-09-12T06:16:31;110.93;;;37.67;;
58581;SDS011;44361;51.476;5.700;2023-09-12T06:18:56;100.53;;;37.03;;
58581;SDS011;44361;51.476;5.700;2023-09-12T06:21:22;102.70;;;37.42;;
58581;SDS011;44361;51.476;5.700;2023-09-12T06:23:48;111.50;;;39.88;;
58581;SDS011;44361;51.476;5.700;2023-09-12T06:26:32;115.90;;;39.00;;
58581;SDS011;44361;51.476;5.700;2023-09-12T06:28:57;113.43;;;37.00;;
58581;SDS011;44361;51.476;5.700;2023-09-12T06:31:23;122.97;;;40.55;;
58581;SDS011;44361;51.476;5.700;2023-09-12T06:33:49;111.30;;;38.88;;
58581;SDS011;44361;51.476;5.700;2023-09-12T06:36:14;136.05;;;42.60;;
58581;SDS011;44361;51.476;5.700;2023-09-12T06:38:40;124.05;;;41.65;;
58581;SDS011;44361;51.476;5.700;2023-09-12T06:41:05;122.07;;;40.92;;
58581;SDS011;44361;51.476;5.700;2023-09-12T06:43:31;127.32;;;41.17;;
58581;SDS011;44361;51.476;5.700;2023-09-12T06:45:56;123.57;;;41.58;;
58581;SDS011;44361;51.476;5.700;2023-09-12T06:48:22;117.65;;;41.40;;
58581;SDS011;44361;51.476;5.700;2023-09-12T06:50:47;108.95;;;39.53;;
58581;SDS011;44361;51.476;5.700;2023-09-12T06:53:13;121.95;;;40.08;;
58581;SDS011;44361;51.476;5.700;2023-09-12T06:55:38;112.63;;;38.67;;
58581;SDS011;44361;51.476;5.700;2023-09-12T06:58:04;105.35;;;39.47;;
58581;SDS011;44361;51.476;5.700;2023-09-12T07:00:30;107.82;;;39.47;;
58581;SDS011;44361;51.476;5.700;2023-09-12T07:02:56;108.50;;;40.70;;
58581;SDS011;44361;51.476;5.700;2023-09-12T07:05:21;115.63;;;39.63;;
58581;SDS011;44361;51.476;5.700;2023-09-12T07:07:47;111.78;;;38.60;;
58581;SDS011;44361;51.476;5.700;2023-09-12T07:10:13;111.57;;;39.92;;
58581;SDS011;44361;51.476;5.700;2023-09-12T07:12:38;138.10;;;40.67;;
58581;SDS011;44361;51.476;5.700;2023-09-12T07:15:04;124.53;;;42.00;;
58581;SDS011;44361;51.476;5.700;2023-09-12T07:17:30;115.57;;;41.97;;
58581;SDS011;44361;51.476;5.700;2023-09-12T07:19:55;111.85;;;40.97;;
58581;SDS011;44361;51.476;5.700;2023-09-12T07:22:21;123.13;;;41.65;;
58581;SDS011;44361;51.476;5.700;2023-09-12T07:24:46;110.93;;;41.55;;
58581;SDS011;44361;51.476;5.700;2023-09-12T07:27:12;110.93;;;42.47;;
58581;SDS011;44361;51.476;5.700;2023-09-12T07:29:37;105.30;;;40.83;;
58581;SDS011;44361;51.476;5.700;2023-09-12T07:32:03;88.45;;;38.55;;
58581;SDS011;44361;51.476;5.700;2023-09-12T07:34:29;73.25;;;33.63;;
58581;SDS011;44361;51.476;5.700;2023-09-12T07:36:54;73.15;;;34.08;;
58581;SDS011;44361;51.476;5.700;2023-09-12T07:39:20;63.13;;;30.75;;
58581;SDS011;44361;51.476;5.700;2023-09-12T07:41:46;61.92;;;31.65;;
58581;SDS011;44361;51.476;5.700;2023-09-12T07:44:12;56.22;;;28.85;;
58581;SDS011;44361;51.476;5.700;2023-09-12T07:46:40;51.17;;;26.05;;
58581;SDS011;44361;51.476;5.700;2023-09-12T07:49:06;47.85;;;25.95;;
58581;SDS011;44361;51.476;5.700;2023-09-12T07:51:34;40.13;;;23.38;;
58581;SDS011;44361;51.476;5.700;2023-09-12T07:53:59;38.08;;;22.85;;
58581;SDS011;44361;51.476;5.700;2023-09-12T07:56:25;37.40;;;22.60;;
58581;SDS011;44361;51.476;5.700;2023-09-12T07:58:51;39.38;;;22.73;;
58581;SDS011;44361;51.476;5.700;2023-09-12T08:01:17;36.15;;;22.73;;
58581;SDS011;44361;51.476;5.700;2023-09-12T08:03:42;40.40;;;22.23;;
58581;SDS011;44361;51.476;5.700;2023-09-12T08:06:09;42.58;;;25.33;;
58581;SDS011;44361;51.476;5.700;2023-09-12T08:08:34;48.30;;;28.13;;
58581;SDS011;44361;51.476;5.700;2023-09-12T08:11:00;44.38;;;26.73;;
58581;SDS011;44361;51.476;5.700;2023-09-12T08:13:53;41.70;;;25.00;;
58581;SDS011;44361;51.476;5.700;2023-09-12T08:16:22;39.38;;;24.25;;
58581;SDS011;44361;51.476;5.700;2023-09-12T08:18:47;39.97;;;23.15;;
58581;SDS011;44361;51.476;5.700;2023-09-12T08:21:13;38.38;;;22.60;;
58581;SDS011;44361;51.476;5.700;2023-09-12T08:23:39;43.60;;;24.95;;
58581;SDS011;44361;51.476;5.700;2023-09-12T08:26:04;43.17;;;26.08;;
58581;SDS011;44361;51.476;5.700;2023-09-12T08:28:30;43.20;;;25.00;;
58581;SDS011;44361;51.476;5.700;2023-09-12T08:30:55;39.42;;;24.45;;
58581;SDS011;44361;51.476;5.700;2023-09-12T08:33:21;38.70;;;24.45;;
58581;SDS011;44361;51.476;5.700;2023-09-12T08:35:46;41.33;;;25.08;;
58581;SDS011;44361;51.476;5.700;2023-09-12T08:38:14;39.28;;;23.73;;
58581;SDS011;44361;51.476;5.700;2023-09-12T08:40:39;39.42;;;22.65;;
58581;SDS011;44361;51.476;5.700;2023-09-12T08:43:05;37.60;;;23.83;;
58581;SDS011;44361;51.476;5.700;2023-09-12T08:45:31;39.78;;;23.98;;
58581;SDS011;44361;51.476;5.700;2023-09-12T08:47:58;37.30;;;22.90;;
58581;SDS011;44361;51.476;5.700;2023-09-12T08:50:27;37.70;;;21.83;;
58581;SDS011;44361;51.476;5.700;2023-09-12T08:52:57;39.30;;;22.80;;
58581;SDS011;44361;51.476;5.700;2023-09-12T08:55:23;38.63;;;23.10;;
58581;SDS011;44361;51.476;5.700;2023-09-12T08:57:50;33.10;;;21.98;;
58581;SDS011;44361;51.476;5.700;2023-09-12T09:00:16;35.03;;;21.52;;
58581;SDS011;44361;51.476;5.700;2023-09-12T09:02:43;35.20;;;20.27;;
58581;SDS011;44361;51.476;5.700;2023-09-12T09:05:09;30.27;;;18.63;;
58581;SDS011;44361;51.476;5.700;2023-09-12T09:07:35;26.45;;;16.15;;
58581;SDS011;44361;51.476;5.700;2023-09-12T09:10:03;25.83;;;16.33;;
58581;SDS011;44361;51.476;5.700;2023-09-12T09:12:30;25.50;;;16.60;;
58581;SDS011;44361;51.476;5.700;2023-09-12T09:14:56;31.52;;;17.17;;
58581;SDS011;44361;51.476;5.700;2023-09-12T09:17:22;23.48;;;15.27;;
58581;SDS011;44361;51.476;5.700;2023-09-12T09:19:48;28.90;;;16.20;;
58581;SDS011;44361;51.476;5.700;2023-09-12T09:22:14;25.13;;;16.52;;
58581;SDS011;44361;51.476;5.700;2023-09-12T09:24:39;19.48;;;11.25;;
58581;SDS011;44361;51.476;5.700;2023-09-12T09:27:05;21.80;;;12.13;;
58581;SDS011;44361;51.476;5.700;2023-09-12T09:29:30;23.10;;;12.02;;
58581;SDS011;44361;51.476;5.700;2023-09-12T09:31:58;20.70;;;11.38;;
58581;SDS011;44361;51.476;5.700;2023-09-12T09:34:30;19.23;;;12.52;;
58581;SDS011;44361;51.476;5.700;2023-09-12T09:36:57;19.55;;;12.90;;
58581;SDS011;44361;51.476;5.700;2023-09-12T09:39:23;19.55;;;12.75;;
58581;SDS011;44361;51.476;5.700;2023-09-12T09:41:51;21.35;;;12.82;;
58581;SDS011;44361;51.476;5.700;2023-09-12T09:44:18;27.10;;;14.07;;
58581;SDS011;44361;51.476;5.700;2023-09-12T09:46:45;22.75;;;13.30;;
58581;SDS011;44361;51.476;5.700;2023-09-12T09:49:14;20.73;;;12.43;;
58581;SDS011;44361;51.476;5.700;2023-09-12T09:51:41;23.45;;;13.38;;
58581;SDS011;44361;51.476;5.700;2023-09-12T09:54:08;25.55;;;13.57;;
58581;SDS011;44361;51.476;5.700;2023-09-12T09:56:37;22.73;;;13.65;;
58581;SDS011;44361;51.476;5.700;2023-09-12T09:59:23;21.83;;;13.98;;
58581;SDS011;44361;51.476;5.700;2023-09-12T10:01:50;22.73;;;13.52;;
58581;SDS011;44361;51.476;5.700;2023-09-12T10:04:21;24.05;;;14.80;;
58581;SDS011;44361;51.476;5.700;2023-09-12T10:06:47;24.35;;;14.35;;
58581;SDS011;44361;51.476;5.700;2023-09-12T10:09:14;19.55;;;13.30;;
58581;SDS011;44361;51.476;5.700;2023-09-12T10:11:46;22.85;;;14.90;;
58581;SDS011;44361;51.476;5.700;2023-09-12T10:14:13;23.98;;;14.98;;
58581;SDS011;44361;51.476;5.700;2023-09-12T10:16:45;27.58;;;16.52;;
58581;SDS011;44361;51.476;5.700;2023-09-12T10:19:20;23.23;;;14.63;;
58581;SDS011;44361;51.476;5.700;2023-09-12T10:22:10;24.65;;;15.38;;
58581;SDS011;44361;51.476;5.700;2023-09-12T10:24:49;27.13;;;15.93;;
58581;SDS011;44361;51.476;5.700;2023-09-12T10:27:15;26.98;;;15.98;;
58581;SDS011;44361;51.476;5.700;2023-09-12T10:29:43;29.70;;;17.70;;
58581;SDS011;44361;51.476;5.700;2023-09-12T10:32:12;24.90;;;15.48;;
58581;SDS011;44361;51.476;5.700;2023-09-12T10:34:39;21.70;;;13.63;;
58581;SDS011;44361;51.476;5.700;2023-09-12T10:37:09;22.88;;;14.95;;
58581;SDS011;44361;51.476;5.700;2023-09-12T10:39:36;26.63;;;15.90;;
58581;SDS011;44361;51.476;5.700;2023-09-12T10:42:03;20.23;;;12.43;;
58581;SDS011;44361;51.476;5.700;2023-09-12T10:44:30;23.35;;;14.43;;
58581;SDS011;44361;51.476;5.700;2023-09-12T10:46:57;20.70;;;13.95;;
58581;SDS011;44361;51.476;5.700;2023-09-12T10:49:23;20.80;;;13.90;;
58581;SDS011;44361;51.476;5.700;2023-09-12T10:51:49;19.52;;;14.18;;
58581;SDS011;44361;51.476;5.700;2023-09-12T10:54:15;23.75;;;14.68;;
58581;SDS011;44361;51.476;5.700;2023-09-12T10:57:01;22.60;;;14.60;;
58581;SDS011;44361;51.476;5.700;2023-09-12T10:59:36;20.67;;;13.65;;
58581;SDS011;44361;51.476;5.700;2023-09-12T11:02:32;22.20;;;13.27;;
58581;SDS011;44361;51.476;5.700;2023-09-12T11:04:59;20.58;;;12.93;;
58581;SDS011;44361;51.476;5.700;2023-09-12T11:07:30;23.88;;;14.20;;
58581;SDS011;44361;51.476;5.700;2023-09-12T11:12:41;21.27;;;12.43;;
58581;SDS011;44361;51.476;5.700;2023-09-12T11:15:08;20.25;;;12.63;;
58581;SDS011;44361;51.476;5.700;2023-09-12T11:17:39;17.25;;;11.52;;
58581;SDS011;44361;51.476;5.700;2023-09-12T11:20:04;21.00;;;12.65;;
58581;SDS011;44361;51.476;5.700;2023-09-12T11:22:35;18.80;;;11.80;;
58581;SDS011;44361;51.476;5.700;2023-09-12T11:25:04;17.50;;;11.85;;
58581;SDS011;44361;51.476;5.700;2023-09-12T11:28:01;20.40;;;12.63;;
58581;SDS011;44361;51.476;5.700;2023-09-12T11:30:29;24.65;;;13.68;;
58581;SDS011;44361;51.476;5.700;2023-09-12T11:32:59;18.67;;;11.43;;
58581;SDS011;44361;51.476;5.700;2023-09-12T11:35:25;16.08;;;11.05;;
58581;SDS011;44361;51.476;5.700;2023-09-12T11:37:53;19.48;;;12.13;;
58581;SDS011;44361;51.476;5.700;2023-09-12T11:42:58;15.45;;;8.70;;
58581;SDS011;44361;51.476;5.700;2023-09-12T11:45:25;15.68;;;9.45;;
58581;SDS011;44361;51.476;5.700;2023-09-12T11:47:50;13.98;;;9.05;;
58581;SDS011;44361;51.476;5.700;2023-09-12T11:50:35;12.02;;;7.63;;
58581;SDS011;44361;51.476;5.700;2023-09-12T11:53:04;13.23;;;8.60;;
58581;SDS011;44361;51.476;5.700;2023-09-12T11:55:32;14.20;;;8.07;;
58581;SDS011;44361;51.476;5.700;2023-09-12T11:58:00;13.00;;;9.10;;
58581;SDS011;44361;51.476;5.700;2023-09-12T12:00:25;13.65;;;9.23;;
58581;SDS011;44361;51.476;5.700;2023-09-12T12:02:53;10.85;;;7.07;;
58581;SDS011;44361;51.476;5.700;2023-09-12T12:05:19;13.13;;;9.48;;
58581;SDS011;44361;51.476;5.700;2023-09-12T12:07:46;8.77;;;7.00;;
58581;SDS011;44361;51.476;5.700;2023-09-12T12:10:12;11.23;;;7.13;;
58581;SDS011;44361;51.476;5.700;2023-09-12T12:12:38;14.07;;;8.55;;
58581;SDS011;44361;51.476;5.700;2023-09-12T12:15:04;13.50;;;8.02;;
58581;SDS011;44361;51.476;5.700;2023-09-12T12:17:36;11.57;;;7.72;;
58581;SDS011;44361;51.476;5.700;2023-09-12T12:20:02;11.63;;;7.72;;
58581;SDS011;44361;51.476;5.700;2023-09-12T12:22:33;13.07;;;8.23;;
58581;SDS011;44361;51.476;5.700;2023-09-12T12:25:04;14.18;;;8.23;;
58581;SDS011;44361;51.476;5.700;2023-09-12T12:27:37;9.95;;;7.47;;
58581;SDS011;44361;51.476;5.700;2023-09-12T12:30:07;11.77;;;7.22;;
58581;SDS011;44361;51.476;5.700;2023-09-12T12:32:36;17.83;;;9.40;;
58581;SDS011;44361;51.476;5.700;2023-09-12T12:35:09;16.52;;;9.82;;
58581;SDS011;44361;51.476;5.700;2023-09-12T12:37:41;16.33;;;9.57;;
58581;SDS011;44361;51.476;5.700;2023-09-12T12:40:11;16.33;;;9.90;;
58581;SDS011;44361;51.476;5.700;2023-09-12T12:42:38;15.32;;;9.52;;
58581;SDS011;44361;51.476;5.700;2023-09-12T12:45:13;10.43;;;7.53;;
58581;SDS011;44361;51.476;5.700;2023-09-12T12:47:40;13.70;;;9.48;;
58581;SDS011;44361;51.476;5.700;2023-09-12T12:50:12;17.77;;;10.45;;
58581;SDS011;44361;51.476;5.700;2023-09-12T12:52:40;15.57;;;10.17;;
58581;SDS011;44361;51.476;5.700;2023-09-12T12:58:15;18.55;;;10.15;;
58581;SDS011;44361;51.476;5.700;2023-09-12T13:00:49;17.00;;;9.38;;
58581;SDS011;44361;51.476;5.700;2023-09-12T13:03:15;16.20;;;10.02;;
58581;SDS011;44361;51.476;5.700;2023-09-12T13:05:40;15.02;;;10.00;;
58581;SDS011;44361;51.476;5.700;2023-09-12T13:08:06;15.05;;;8.38;;
58581;SDS011;44361;51.476;5.700;2023-09-12T13:10:32;16.83;;;9.73;;
58581;SDS011;44361;51.476;5.700;2023-09-12T13:12:57;15.32;;;9.77;;
58581;SDS011;44361;51.476;5.700;2023-09-12T13:15:23;13.38;;;9.02;;
58581;SDS011;44361;51.476;5.700;2023-09-12T13:17:49;12.75;;;9.52;;
58581;SDS011;44361;51.476;5.700;2023-09-12T13:20:14;15.93;;;8.73;;
58581;SDS011;44361;51.476;5.700;2023-09-12T13:22:40;12.00;;;7.80;;
58581;SDS011;44361;51.476;5.700;2023-09-12T13:25:06;11.57;;;8.73;;
58581;SDS011;44361;51.476;5.700;2023-09-12T13:27:32;11.68;;;8.07;;
58581;SDS011;44361;51.476;5.700;2023-09-12T13:29:58;11.10;;;8.25;;
58581;SDS011;44361;51.476;5.700;2023-09-12T13:32:23;11.88;;;7.40;;
58581;SDS011;44361;51.476;5.700;2023-09-12T13:34:49;12.82;;;7.47;;
58581;SDS011;44361;51.476;5.700;2023-09-12T13:37:15;13.65;;;10.07;;
58581;SDS011;44361;51.476;5.700;2023-09-12T13:39:41;13.43;;;9.35;;
58581;SDS011;44361;51.476;5.700;2023-09-12T13:42:12;13.45;;;8.23;;
58581;SDS011;44361;51.476;5.700;2023-09-12T13:44:39;14.10;;;8.45;;
58581;SDS011;44361;51.476;5.700;2023-09-12T13:47:04;12.45;;;7.95;;
58581;SDS011;44361;51.476;5.700;2023-09-12T13:49:30;12.48;;;8.60;;
58581;SDS011;44361;51.476;5.700;2023-09-12T13:51:55;12.38;;;7.90;;
58581;SDS011;44361;51.476;5.700;2023-09-12T13:54:21;18.88;;;9.20;;
58581;SDS011;44361;51.476;5.700;2023-09-12T13:56:46;13.40;;;8.52;;
58581;SDS011;44361;51.476;5.700;2023-09-12T13:59:12;13.43;;;8.57;;
58581;SDS011;44361;51.476;5.700;2023-09-12T14:01:41;13.70;;;9.85;;
58581;SDS011;44361;51.476;5.700;2023-09-12T14:04:07;11.82;;;8.75;;
58581;SDS011;44361;51.476;5.700;2023-09-12T14:06:33;13.05;;;9.32;;
58581;SDS011;44361;51.476;5.700;2023-09-12T14:09:00;12.88;;;8.02;;
58581;SDS011;44361;51.476;5.700;2023-09-12T14:11:25;15.55;;;8.25;;
58581;SDS011;44361;51.476;5.700;2023-09-12T14:13:51;14.30;;;8.35;;
58581;SDS011;44361;51.476;5.700;2023-09-12T14:16:16;12.73;;;8.27;;
58581;SDS011;44361;51.476;5.700;2023-09-12T14:18:42;12.77;;;8.50;;
58581;SDS011;44361;51.476;5.700;2023-09-12T14:21:07;14.43;;;8.50;;
58581;SDS011;44361;51.476;5.700;2023-09-12T14:23:33;11.30;;;7.78;;
58581;SDS011;44361;51.476;5.700;2023-09-12T14:25:58;12.18;;;8.30;;
58581;SDS011;44361;51.476;5.700;2023-09-12T14:28:24;14.13;;;8.23;;
58581;SDS011;44361;51.476;5.700;2023-09-12T14:30:49;12.25;;;7.45;;
58581;SDS011;44361;51.476;5.700;2023-09-12T14:33:15;13.18;;;8.27;;
58581;SDS011;44361;51.476;5.700;2023-09-12T14:35:43;15.05;;;8.10;;
58581;SDS011;44361;51.476;5.700;2023-09-12T14:38:10;11.95;;;8.27;;